Terminal Aerodrome Forecast
Issued by NWS Upton, NY

Home | Current Version | Previous Version | Text Only | Print | Product List | Glossary On
Versions: 1 2 3 4 5 6 7 8 9 10 11 12 13 14 15 16 17 18 19 20 21 22 23 24 25 26 27 28 29 30 31 32 33 34 35 36
250
FTUS41 KOKX 061337 AAA
TAFLGA
TAF AMD
KLGA 061337Z 0614/0712 05019G26KT 4SM -RA BR OVC008
     FM061800 06022G30KT 1SM -SHRADZ BR OVC006
     FM070000 08014KT 1SM -DZ BR OVC004
     FM070600 08008KT 2SM -DZ BR OVC004=

USA.gov is the U.S. government's official web portal to all federal, state and local government web resources and services.